<?xml version="1.0" encoding="UTF-8" standalone="no" ?>
<gpx xmlns="http://www.topografix.com/GPX/1/1" xmlns:xsi="http://www.w3.org/2001/XMLSchema-instance" xsi:schemaLocation="http://www.topografix.com/GPX/1/1 http://www.topografix.com/GPX/1/1/gpx.xsd" version="1.1" creator="VisuGPX - https://www.visugpx.com">
  <metadata>
    <name>Chapon - Serre en Don</name>
    <desc><![CDATA[Chapon - Serre en Don par le Bois de Brolles et le site du premier relais TV du Cheylard (Vergnes)]]></desc>
  </metadata>
  <trk>
    <name><![CDATA[ACTIVE LOG125443]]></name>
    <trkseg>
      <trkpt lat="44.88764" lon="4.39707">
        <ele>568.821</ele>
        <time>2011-05-17T12:54:42Z</time>
      </trkpt>
      <trkpt lat="44.88768" lon="4.39712">
        <ele>571.685</ele>
        <time>2011-05-17T12:54:51Z</time>
      </trkpt>
      <trkpt lat="44.88778" lon="4.3972">
        <ele>571.233</ele>
        <time>2011-05-17T12:54:59Z</time>
      </trkpt>
      <trkpt lat="44.88792" lon="4.39741">
        <ele>571.69</ele>
        <time>2011-05-17T12:55:13Z</time>
      </trkpt>
      <trkpt lat="44.88805" lon="4.39762">
        <ele>572.209</ele>
        <time>2011-05-17T12:55:25Z</time>
      </trkpt>
      <trkpt lat="44.88807" lon="4.3977">
        <ele>572.366</ele>
        <time>2011-05-17T12:55:33Z</time>
      </trkpt>
      <trkpt lat="44.88808" lon="4.39773">
        <ele>572.717</ele>
        <time>2011-05-17T12:55:35Z</time>
      </trkpt>
      <trkpt lat="44.8881" lon="4.39779">
        <ele>573.085</ele>
        <time>2011-05-17T12:55:39Z</time>
      </trkpt>
      <trkpt lat="44.88816" lon="4.39818">
        <ele>575.426</ele>
        <time>2011-05-17T12:56:03Z</time>
      </trkpt>
      <trkpt lat="44.88819" lon="4.39844">
        <ele>575.91</ele>
        <time>2011-05-17T12:56:19Z</time>
      </trkpt>
      <trkpt lat="44.88811" lon="4.39884">
        <ele>575.611</ele>
        <time>2011-05-17T12:56:42Z</time>
      </trkpt>
      <trkpt lat="44.88802" lon="4.3991">
        <ele>576.187</ele>
        <time>2011-05-17T12:56:58Z</time>
      </trkpt>
      <trkpt lat="44.888" lon="4.39915">
        <ele>576.201</ele>
        <time>2011-05-17T12:57:02Z</time>
      </trkpt>
      <trkpt lat="44.88797" lon="4.39921">
        <ele>575.733</ele>
        <time>2011-05-17T12:57:06Z</time>
      </trkpt>
      <trkpt lat="44.88785" lon="4.3995">
        <ele>577.458</ele>
        <time>2011-05-17T12:57:25Z</time>
      </trkpt>
      <trkpt lat="44.88779" lon="4.39964">
        <ele>577.602</ele>
        <time>2011-05-17T12:57:35Z</time>
      </trkpt>
      <trkpt lat="44.88761" lon="4.39985">
        <ele>577.654</ele>
        <time>2011-05-17T12:57:53Z</time>
      </trkpt>
      <trkpt lat="44.88746" lon="4.40001">
        <ele>577.526</ele>
        <time>2011-05-17T12:58:10Z</time>
      </trkpt>
      <trkpt lat="44.88741" lon="4.40006">
        <ele>577.903</ele>
        <time>2011-05-17T12:58:15Z</time>
      </trkpt>
      <trkpt lat="44.88729" lon="4.40014">
        <ele>578.634</ele>
        <time>2011-05-17T12:58:25Z</time>
      </trkpt>
      <trkpt lat="44.88714" lon="4.4002">
        <ele>578.868</ele>
        <time>2011-05-17T12:58:36Z</time>
      </trkpt>
      <trkpt lat="44.88706" lon="4.40035">
        <ele>579.594</ele>
        <time>2011-05-17T12:58:47Z</time>
      </trkpt>
      <trkpt lat="44.88705" lon="4.40037">
        <ele>580.319</ele>
        <time>2011-05-17T12:58:49Z</time>
      </trkpt>
      <trkpt lat="44.88693" lon="4.40068">
        <ele>583.028</ele>
        <time>2011-05-17T12:59:10Z</time>
      </trkpt>
      <trkpt lat="44.88683" lon="4.40084">
        <ele>585.297</ele>
        <time>2011-05-17T12:59:23Z</time>
      </trkpt>
      <trkpt lat="44.88681" lon="4.40089">
        <ele>585.427</ele>
        <time>2011-05-17T12:59:27Z</time>
      </trkpt>
      <trkpt lat="44.88679" lon="4.40096">
        <ele>586.642</ele>
        <time>2011-05-17T12:59:33Z</time>
      </trkpt>
      <trkpt lat="44.88676" lon="4.40106">
        <ele>588.386</ele>
        <time>2011-05-17T12:59:41Z</time>
      </trkpt>
      <trkpt lat="44.88668" lon="4.40132">
        <ele>591.308</ele>
        <time>2011-05-17T12:59:58Z</time>
      </trkpt>
      <trkpt lat="44.88657" lon="4.40158">
        <ele>593.752</ele>
        <time>2011-05-17T13:00:17Z</time>
      </trkpt>
      <trkpt lat="44.88655" lon="4.40165">
        <ele>594.738</ele>
        <time>2011-05-17T13:00:22Z</time>
      </trkpt>
      <trkpt lat="44.8865" lon="4.40177">
        <ele>595.748</ele>
        <time>2011-05-17T13:00:31Z</time>
      </trkpt>
      <trkpt lat="44.88647" lon="4.40195">
        <ele>598.654</ele>
        <time>2011-05-17T13:00:46Z</time>
      </trkpt>
      <trkpt lat="44.88642" lon="4.40208">
        <ele>600.48</ele>
        <time>2011-05-17T13:01:01Z</time>
      </trkpt>
      <trkpt lat="44.88638" lon="4.40223">
        <ele>602.577</ele>
        <time>2011-05-17T13:01:12Z</time>
      </trkpt>
      <trkpt lat="44.88626" lon="4.40254">
        <ele>605.282</ele>
        <time>2011-05-17T13:01:33Z</time>
      </trkpt>
      <trkpt lat="44.88617" lon="4.4028">
        <ele>607.119</ele>
        <time>2011-05-17T13:01:52Z</time>
      </trkpt>
      <trkpt lat="44.88607" lon="4.40301">
        <ele>608.611</ele>
        <time>2011-05-17T13:02:09Z</time>
      </trkpt>
      <trkpt lat="44.88602" lon="4.40316">
        <ele>609.834</ele>
        <time>2011-05-17T13:02:19Z</time>
      </trkpt>
      <trkpt lat="44.88596" lon="4.40332">
        <ele>611.828</ele>
        <time>2011-05-17T13:02:32Z</time>
      </trkpt>
      <trkpt lat="44.88588" lon="4.40352">
        <ele>614.263</ele>
        <time>2011-05-17T13:02:47Z</time>
      </trkpt>
      <trkpt lat="44.88583" lon="4.40377">
        <ele>616.286</ele>
        <time>2011-05-17T13:03:05Z</time>
      </trkpt>
      <trkpt lat="44.88582" lon="4.40381">
        <ele>616.326</ele>
        <time>2011-05-17T13:03:07Z</time>
      </trkpt>
      <trkpt lat="44.8858" lon="4.40386">
        <ele>616.566</ele>
        <time>2011-05-17T13:03:11Z</time>
      </trkpt>
      <trkpt lat="44.8858" lon="4.4039">
        <ele>617.185</ele>
        <time>2011-05-17T13:03:13Z</time>
      </trkpt>
      <trkpt lat="44.88581" lon="4.40411">
        <ele>619.145</ele>
        <time>2011-05-17T13:03:31Z</time>
      </trkpt>
      <trkpt lat="44.88582" lon="4.40415">
        <ele>619.295</ele>
        <time>2011-05-17T13:03:34Z</time>
      </trkpt>
      <trkpt lat="44.88583" lon="4.40416">
        <ele>619.738</ele>
        <time>2011-05-17T13:03:36Z</time>
      </trkpt>
      <trkpt lat="44.88586" lon="4.40438">
        <ele>622.279</ele>
        <time>2011-05-17T13:03:52Z</time>
      </trkpt>
      <trkpt lat="44.88588" lon="4.40453">
        <ele>623.277</ele>
        <time>2011-05-17T13:04:02Z</time>
      </trkpt>
      <trkpt lat="44.88588" lon="4.40466">
        <ele>624.165</ele>
        <time>2011-05-17T13:04:11Z</time>
      </trkpt>
      <trkpt lat="44.88587" lon="4.40476">
        <ele>625.146</ele>
        <time>2011-05-17T13:04:18Z</time>
      </trkpt>
      <trkpt lat="44.88587" lon="4.4048">
        <ele>625.828</ele>
        <time>2011-05-17T13:04:21Z</time>
      </trkpt>
      <trkpt lat="44.88587" lon="4.40499">
        <ele>627.527</ele>
        <time>2011-05-17T13:04:34Z</time>
      </trkpt>
      <trkpt lat="44.88591" lon="4.40515">
        <ele>629.394</ele>
        <time>2011-05-17T13:04:46Z</time>
      </trkpt>
      <trkpt lat="44.88592" lon="4.40529">
        <ele>630.822</ele>
        <time>2011-05-17T13:04:56Z</time>
      </trkpt>
      <trkpt lat="44.88592" lon="4.4055">
        <ele>633.979</ele>
        <time>2011-05-17T13:05:11Z</time>
      </trkpt>
      <trkpt lat="44.88587" lon="4.40575">
        <ele>636.803</ele>
        <time>2011-05-17T13:05:30Z</time>
      </trkpt>
      <trkpt lat="44.88582" lon="4.40597">
        <ele>640.187</ele>
        <time>2011-05-17T13:05:48Z</time>
      </trkpt>
      <trkpt lat="44.88537" lon="4.4071">
        <ele>661.552</ele>
        <time>2011-05-17T13:16:01Z</time>
      </trkpt>
      <trkpt lat="44.88535" lon="4.40703">
        <ele>662.138</ele>
        <time>2011-05-17T13:16:06Z</time>
      </trkpt>
      <trkpt lat="44.88533" lon="4.40699">
        <ele>662.373</ele>
        <time>2011-05-17T13:16:09Z</time>
      </trkpt>
      <trkpt lat="44.88526" lon="4.40681">
        <ele>665.074</ele>
        <time>2011-05-17T13:16:22Z</time>
      </trkpt>
      <trkpt lat="44.88521" lon="4.40662">
        <ele>667.171</ele>
        <time>2011-05-17T13:16:39Z</time>
      </trkpt>
      <trkpt lat="44.88516" lon="4.40645">
        <ele>670.452</ele>
        <time>2011-05-17T13:16:56Z</time>
      </trkpt>
      <trkpt lat="44.88515" lon="4.40647">
        <ele>671.702</ele>
        <time>2011-05-17T13:17:28Z</time>
      </trkpt>
      <trkpt lat="44.88506" lon="4.4066">
        <ele>674.836</ele>
        <time>2011-05-17T13:17:42Z</time>
      </trkpt>
      <trkpt lat="44.88505" lon="4.4067">
        <ele>676.989</ele>
        <time>2011-05-17T13:17:52Z</time>
      </trkpt>
      <trkpt lat="44.88502" lon="4.40673">
        <ele>677.523</ele>
        <time>2011-05-17T13:17:56Z</time>
      </trkpt>
      <trkpt lat="44.88496" lon="4.40683">
        <ele>679.773</ele>
        <time>2011-05-17T13:18:09Z</time>
      </trkpt>
      <trkpt lat="44.88492" lon="4.40689">
        <ele>681.167</ele>
        <time>2011-05-17T13:18:17Z</time>
      </trkpt>
      <trkpt lat="44.88489" lon="4.40694">
        <ele>683.17</ele>
        <time>2011-05-17T13:18:29Z</time>
      </trkpt>
      <trkpt lat="44.88482" lon="4.40704">
        <ele>685.879</ele>
        <time>2011-05-17T13:18:45Z</time>
      </trkpt>
      <trkpt lat="44.88478" lon="4.4071">
        <ele>687.85</ele>
        <time>2011-05-17T13:18:59Z</time>
      </trkpt>
      <trkpt lat="44.88471" lon="4.40723">
        <ele>690.155</ele>
        <time>2011-05-17T13:19:13Z</time>
      </trkpt>
      <trkpt lat="44.88464" lon="4.40731">
        <ele>692.387</ele>
        <time>2011-05-17T13:19:26Z</time>
      </trkpt>
      <trkpt lat="44.88455" lon="4.4074">
        <ele>695.658</ele>
        <time>2011-05-17T13:19:41Z</time>
      </trkpt>
      <trkpt lat="44.88441" lon="4.4075">
        <ele>699.041</ele>
        <time>2011-05-17T13:19:57Z</time>
      </trkpt>
      <trkpt lat="44.88428" lon="4.40767">
        <ele>701.128</ele>
        <time>2011-05-17T13:20:14Z</time>
      </trkpt>
      <trkpt lat="44.88419" lon="4.40771">
        <ele>703.087</ele>
        <time>2011-05-17T13:20:27Z</time>
      </trkpt>
      <trkpt lat="44.88408" lon="4.40774">
        <ele>704.627</ele>
        <time>2011-05-17T13:20:45Z</time>
      </trkpt>
      <trkpt lat="44.88397" lon="4.40782">
        <ele>707.289</ele>
        <time>2011-05-17T13:21:03Z</time>
      </trkpt>
      <trkpt lat="44.88382" lon="4.40782">
        <ele>710.306</ele>
        <time>2011-05-17T13:21:20Z</time>
      </trkpt>
      <trkpt lat="44.88367" lon="4.40779">
        <ele>712.45</ele>
        <time>2011-05-17T13:21:37Z</time>
      </trkpt>
      <trkpt lat="44.88355" lon="4.40786">
        <ele>715.333</ele>
        <time>2011-05-17T13:22:08Z</time>
      </trkpt>
      <trkpt lat="44.88334" lon="4.40795">
        <ele>718.841</ele>
        <time>2011-05-17T13:22:26Z</time>
      </trkpt>
      <trkpt lat="44.88329" lon="4.40796">
        <ele>719.276</ele>
        <time>2011-05-17T13:22:30Z</time>
      </trkpt>
      <trkpt lat="44.88321" lon="4.40799">
        <ele>721.725</ele>
        <time>2011-05-17T13:22:44Z</time>
      </trkpt>
      <trkpt lat="44.88315" lon="4.408">
        <ele>723.105</ele>
        <time>2011-05-17T13:23:03Z</time>
      </trkpt>
      <trkpt lat="44.88308" lon="4.40801">
        <ele>726.49</ele>
        <time>2011-05-17T13:23:17Z</time>
      </trkpt>
      <trkpt lat="44.883" lon="4.40803">
        <ele>727.552</ele>
        <time>2011-05-17T13:23:25Z</time>
      </trkpt>
      <trkpt lat="44.88284" lon="4.40801">
        <ele>730.996</ele>
        <time>2011-05-17T13:23:42Z</time>
      </trkpt>
      <trkpt lat="44.88268" lon="4.408">
        <ele>734.214</ele>
        <time>2011-05-17T13:24:00Z</time>
      </trkpt>
      <trkpt lat="44.88259" lon="4.40803">
        <ele>735.69</ele>
        <time>2011-05-17T13:24:10Z</time>
      </trkpt>
      <trkpt lat="44.88243" lon="4.40801">
        <ele>738.198</ele>
        <time>2011-05-17T13:24:23Z</time>
      </trkpt>
      <trkpt lat="44.88239" lon="4.40815">
        <ele>741.265</ele>
        <time>2011-05-17T13:24:40Z</time>
      </trkpt>
      <trkpt lat="44.88237" lon="4.4082">
        <ele>742.079</ele>
        <time>2011-05-17T13:24:57Z</time>
      </trkpt>
      <trkpt lat="44.88233" lon="4.40826">
        <ele>744.69</ele>
        <time>2011-05-17T13:25:12Z</time>
      </trkpt>
      <trkpt lat="44.88233" lon="4.40827">
        <ele>744.542</ele>
        <time>2011-05-17T13:25:23Z</time>
      </trkpt>
      <trkpt lat="44.88236" lon="4.40835">
        <ele>745.215</ele>
        <time>2011-05-17T13:25:44Z</time>
      </trkpt>
      <trkpt lat="44.88243" lon="4.40852">
        <ele>745.959</ele>
        <time>2011-05-17T13:25:57Z</time>
      </trkpt>
      <trkpt lat="44.88242" lon="4.40864">
        <ele>749.049</ele>
        <time>2011-05-17T13:26:11Z</time>
      </trkpt>
      <trkpt lat="44.88242" lon="4.40874">
        <ele>751.888</ele>
        <time>2011-05-17T13:26:24Z</time>
      </trkpt>
      <trkpt lat="44.88241" lon="4.4088">
        <ele>754.17</ele>
        <time>2011-05-17T13:26:30Z</time>
      </trkpt>
      <trkpt lat="44.88241" lon="4.40887">
        <ele>756.31</ele>
        <time>2011-05-17T13:26:43Z</time>
      </trkpt>
      <trkpt lat="44.88239" lon="4.40893">
        <ele>759.596</ele>
        <time>2011-05-17T13:27:03Z</time>
      </trkpt>
      <trkpt lat="44.88247" lon="4.40904">
        <ele>762.529</ele>
        <time>2011-05-17T13:27:19Z</time>
      </trkpt>
      <trkpt lat="44.8825" lon="4.40907">
        <ele>763.498</ele>
        <time>2011-05-17T13:27:40Z</time>
      </trkpt>
      <trkpt lat="44.88248" lon="4.40916">
        <ele>765.954</ele>
        <time>2011-05-17T13:27:54Z</time>
      </trkpt>
      <trkpt lat="44.88247" lon="4.40921">
        <ele>768.983</ele>
        <time>2011-05-17T13:28:04Z</time>
      </trkpt>
      <trkpt lat="44.88246" lon="4.40928">
        <ele>770.869</ele>
        <time>2011-05-17T13:28:26Z</time>
      </trkpt>
      <trkpt lat="44.88246" lon="4.40939">
        <ele>773.885</ele>
        <time>2011-05-17T13:28:38Z</time>
      </trkpt>
      <trkpt lat="44.88241" lon="4.40949">
        <ele>777.092</ele>
        <time>2011-05-17T13:28:52Z</time>
      </trkpt>
      <trkpt lat="44.8824" lon="4.4095">
        <ele>778.559</ele>
        <time>2011-05-17T13:28:56Z</time>
      </trkpt>
      <trkpt lat="44.88235" lon="4.40951">
        <ele>781.738</ele>
        <time>2011-05-17T13:29:08Z</time>
      </trkpt>
      <trkpt lat="44.88233" lon="4.40956">
        <ele>784.096</ele>
        <time>2011-05-17T13:29:20Z</time>
      </trkpt>
      <trkpt lat="44.88231" lon="4.40962">
        <ele>786.502</ele>
        <time>2011-05-17T13:29:37Z</time>
      </trkpt>
      <trkpt lat="44.88227" lon="4.40971">
        <ele>788.446</ele>
        <time>2011-05-17T13:29:48Z</time>
      </trkpt>
      <trkpt lat="44.88223" lon="4.40982">
        <ele>790.847</ele>
        <time>2011-05-17T13:30:01Z</time>
      </trkpt>
      <trkpt lat="44.88219" lon="4.40989">
        <ele>794.333</ele>
        <time>2011-05-17T13:30:15Z</time>
      </trkpt>
      <trkpt lat="44.88214" lon="4.40997">
        <ele>796.572</ele>
        <time>2011-05-17T13:30:26Z</time>
      </trkpt>
      <trkpt lat="44.88209" lon="4.41001">
        <ele>799.474</ele>
        <time>2011-05-17T13:30:37Z</time>
      </trkpt>
      <trkpt lat="44.88207" lon="4.41007">
        <ele>800.951</ele>
        <time>2011-05-17T13:30:50Z</time>
      </trkpt>
      <trkpt lat="44.88198" lon="4.4101">
        <ele>804.616</ele>
        <time>2011-05-17T13:31:28Z</time>
      </trkpt>
      <trkpt lat="44.88196" lon="4.41008">
        <ele>804.573</ele>
        <time>2011-05-17T13:32:02Z</time>
      </trkpt>
      <trkpt lat="44.8819" lon="4.41001">
        <ele>806.795</ele>
        <time>2011-05-17T13:32:14Z</time>
      </trkpt>
      <trkpt lat="44.88186" lon="4.41008">
        <ele>809.832</ele>
        <time>2011-05-17T13:32:28Z</time>
      </trkpt>
      <trkpt lat="44.88178" lon="4.41014">
        <ele>812.876</ele>
        <time>2011-05-17T13:32:41Z</time>
      </trkpt>
      <trkpt lat="44.88175" lon="4.41019">
        <ele>813.549</ele>
        <time>2011-05-17T13:32:53Z</time>
      </trkpt>
      <trkpt lat="44.88176" lon="4.41022">
        <ele>815.001</ele>
        <time>2011-05-17T13:33:05Z</time>
      </trkpt>
      <trkpt lat="44.88172" lon="4.41026">
        <ele>816.491</ele>
        <time>2011-05-17T13:33:08Z</time>
      </trkpt>
      <trkpt lat="44.88165" lon="4.41037">
        <ele>819.252</ele>
        <time>2011-05-17T13:33:20Z</time>
      </trkpt>
      <trkpt lat="44.88156" lon="4.41055">
        <ele>822.623</ele>
        <time>2011-05-17T13:33:39Z</time>
      </trkpt>
      <trkpt lat="44.88155" lon="4.41067">
        <ele>825.484</ele>
        <time>2011-05-17T13:33:55Z</time>
      </trkpt>
      <trkpt lat="44.88152" lon="4.41082">
        <ele>828.225</ele>
        <time>2011-05-17T13:34:11Z</time>
      </trkpt>
      <trkpt lat="44.8815" lon="4.41086">
        <ele>829.917</ele>
        <time>2011-05-17T13:34:34Z</time>
      </trkpt>
      <trkpt lat="44.88144" lon="4.41074">
        <ele>832.858</ele>
        <time>2011-05-17T13:34:47Z</time>
      </trkpt>
      <trkpt lat="44.88139" lon="4.41061">
        <ele>836.071</ele>
        <time>2011-05-17T13:35:03Z</time>
      </trkpt>
      <trkpt lat="44.88134" lon="4.4105">
        <ele>838.501</ele>
        <time>2011-05-17T13:35:19Z</time>
      </trkpt>
      <trkpt lat="44.88128" lon="4.41041">
        <ele>841.719</ele>
        <time>2011-05-17T13:35:35Z</time>
      </trkpt>
      <trkpt lat="44.88119" lon="4.41034">
        <ele>845.015</ele>
        <time>2011-05-17T13:35:49Z</time>
      </trkpt>
      <trkpt lat="44.88113" lon="4.41032">
        <ele>847.371</ele>
        <time>2011-05-17T13:36:04Z</time>
      </trkpt>
      <trkpt lat="44.88112" lon="4.41034">
        <ele>848.975</ele>
        <time>2011-05-17T13:36:09Z</time>
      </trkpt>
      <trkpt lat="44.88107" lon="4.41037">
        <ele>851.775</ele>
        <time>2011-05-17T13:36:22Z</time>
      </trkpt>
      <trkpt lat="44.88099" lon="4.41043">
        <ele>854.602</ele>
        <time>2011-05-17T13:36:38Z</time>
      </trkpt>
      <trkpt lat="44.88094" lon="4.41044">
        <ele>855.565</ele>
        <time>2011-05-17T13:36:43Z</time>
      </trkpt>
      <trkpt lat="44.88089" lon="4.4105">
        <ele>858.031</ele>
        <time>2011-05-17T13:36:55Z</time>
      </trkpt>
      <trkpt lat="44.88092" lon="4.41062">
        <ele>859.03</ele>
        <time>2011-05-17T13:37:20Z</time>
      </trkpt>
      <trkpt lat="44.88093" lon="4.4107">
        <ele>860.134</ele>
        <time>2011-05-17T13:37:28Z</time>
      </trkpt>
      <trkpt lat="44.8809" lon="4.41078">
        <ele>863.023</ele>
        <time>2011-05-17T13:37:44Z</time>
      </trkpt>
      <trkpt lat="44.88085" lon="4.41077">
        <ele>864.76</ele>
        <time>2011-05-17T13:37:59Z</time>
      </trkpt>
      <trkpt lat="44.88083" lon="4.41084">
        <ele>866.483</ele>
        <time>2011-05-17T13:38:20Z</time>
      </trkpt>
      <trkpt lat="44.88077" lon="4.41097">
        <ele>869.027</ele>
        <time>2011-05-17T13:38:35Z</time>
      </trkpt>
      <trkpt lat="44.88074" lon="4.41105">
        <ele>870.61</ele>
        <time>2011-05-17T13:38:43Z</time>
      </trkpt>
      <trkpt lat="44.88069" lon="4.41115">
        <ele>873.39</ele>
        <time>2011-05-17T13:38:57Z</time>
      </trkpt>
      <trkpt lat="44.88065" lon="4.41124">
        <ele>876.063</ele>
        <time>2011-05-17T13:39:11Z</time>
      </trkpt>
      <trkpt lat="44.88057" lon="4.41136">
        <ele>878.323</ele>
        <time>2011-05-17T13:39:25Z</time>
      </trkpt>
      <trkpt lat="44.88056" lon="4.41137">
        <ele>878.083</ele>
        <time>2011-05-17T13:39:27Z</time>
      </trkpt>
      <trkpt lat="44.88049" lon="4.41144">
        <ele>879.543</ele>
        <time>2011-05-17T13:39:41Z</time>
      </trkpt>
      <trkpt lat="44.88046" lon="4.41153">
        <ele>879.792</ele>
        <time>2011-05-17T13:39:50Z</time>
      </trkpt>
      <trkpt lat="44.88045" lon="4.41164">
        <ele>880.073</ele>
        <time>2011-05-17T13:40:01Z</time>
      </trkpt>
      <trkpt lat="44.88036" lon="4.41174">
        <ele>883.056</ele>
        <time>2011-05-17T13:40:15Z</time>
      </trkpt>
      <trkpt lat="44.88031" lon="4.41178">
        <ele>886.306</ele>
        <time>2011-05-17T13:40:27Z</time>
      </trkpt>
      <trkpt lat="44.88027" lon="4.41185">
        <ele>889.22</ele>
        <time>2011-05-17T13:41:16Z</time>
      </trkpt>
      <trkpt lat="44.88022" lon="4.41197">
        <ele>891.961</ele>
        <time>2011-05-17T13:41:30Z</time>
      </trkpt>
      <trkpt lat="44.88023" lon="4.41208">
        <ele>893.349</ele>
        <time>2011-05-17T13:41:41Z</time>
      </trkpt>
      <trkpt lat="44.88021" lon="4.41221">
        <ele>895.957</ele>
        <time>2011-05-17T13:41:53Z</time>
      </trkpt>
      <trkpt lat="44.8802" lon="4.41225">
        <ele>896.303</ele>
        <time>2011-05-17T13:41:56Z</time>
      </trkpt>
      <trkpt lat="44.88016" lon="4.41233">
        <ele>898.861</ele>
        <time>2011-05-17T13:42:23Z</time>
      </trkpt>
      <trkpt lat="44.88014" lon="4.41246">
        <ele>900.789</ele>
        <time>2011-05-17T13:42:41Z</time>
      </trkpt>
      <trkpt lat="44.88014" lon="4.41254">
        <ele>904.446</ele>
        <time>2011-05-17T13:42:55Z</time>
      </trkpt>
      <trkpt lat="44.88007" lon="4.4126">
        <ele>907.79</ele>
        <time>2011-05-17T13:43:09Z</time>
      </trkpt>
      <trkpt lat="44.88004" lon="4.4126">
        <ele>910.239</ele>
        <time>2011-05-17T13:43:37Z</time>
      </trkpt>
      <trkpt lat="44.88001" lon="4.41258">
        <ele>910.601</ele>
        <time>2011-05-17T13:43:41Z</time>
      </trkpt>
      <trkpt lat="44.87997" lon="4.41262">
        <ele>914.059</ele>
        <time>2011-05-17T13:44:15Z</time>
      </trkpt>
      <trkpt lat="44.87993" lon="4.41274">
        <ele>917.339</ele>
        <time>2011-05-17T13:44:32Z</time>
      </trkpt>
      <trkpt lat="44.87988" lon="4.41285">
        <ele>920.345</ele>
        <time>2011-05-17T13:44:46Z</time>
      </trkpt>
      <trkpt lat="44.87985" lon="4.41286">
        <ele>922.438</ele>
        <time>2011-05-17T13:44:56Z</time>
      </trkpt>
      <trkpt lat="44.87977" lon="4.41286">
        <ele>926.484</ele>
        <time>2011-05-17T13:45:32Z</time>
      </trkpt>
      <trkpt lat="44.87972" lon="4.41287">
        <ele>929.644</ele>
        <time>2011-05-17T13:46:48Z</time>
      </trkpt>
      <trkpt lat="44.87968" lon="4.41279">
        <ele>930.087</ele>
        <time>2011-05-17T13:46:58Z</time>
      </trkpt>
      <trkpt lat="44.87966" lon="4.41267">
        <ele>929.737</ele>
        <time>2011-05-17T13:47:06Z</time>
      </trkpt>
      <trkpt lat="44.87966" lon="4.41259">
        <ele>929.496</ele>
        <time>2011-05-17T13:47:12Z</time>
      </trkpt>
      <trkpt lat="44.87966" lon="4.41255">
        <ele>929.707</ele>
        <time>2011-05-17T13:47:15Z</time>
      </trkpt>
      <trkpt lat="44.87965" lon="4.41228">
        <ele>930.508</ele>
        <time>2011-05-17T13:47:33Z</time>
      </trkpt>
      <trkpt lat="44.87967" lon="4.41224">
        <ele>930.244</ele>
        <time>2011-05-17T13:47:36Z</time>
      </trkpt>
      <trkpt lat="44.87967" lon="4.41221">
        <ele>930.234</ele>
        <time>2011-05-17T13:47:38Z</time>
      </trkpt>
      <trkpt lat="44.87964" lon="4.4121">
        <ele>929.945</ele>
        <time>2011-05-17T13:47:45Z</time>
      </trkpt>
      <trkpt lat="44.87964" lon="4.41205">
        <ele>929.403</ele>
        <time>2011-05-17T13:47:49Z</time>
      </trkpt>
      <trkpt lat="44.87962" lon="4.41201">
        <ele>928.86</ele>
        <time>2011-05-17T13:47:52Z</time>
      </trkpt>
      <trkpt lat="44.87953" lon="4.41185">
        <ele>928.736</ele>
        <time>2011-05-17T13:48:05Z</time>
      </trkpt>
      <trkpt lat="44.87952" lon="4.4118">
        <ele>928.726</ele>
        <time>2011-05-17T13:48:09Z</time>
      </trkpt>
      <trkpt lat="44.87954" lon="4.41172">
        <ele>927.558</ele>
        <time>2011-05-17T13:48:14Z</time>
      </trkpt>
      <trkpt lat="44.87953" lon="4.4117">
        <ele>926.828</ele>
        <time>2011-05-17T13:48:16Z</time>
      </trkpt>
      <trkpt lat="44.8795" lon="4.41157">
        <ele>925.352</ele>
        <time>2011-05-17T13:48:28Z</time>
      </trkpt>
      <trkpt lat="44.87946" lon="4.41146">
        <ele>924.672</ele>
        <time>2011-05-17T13:48:35Z</time>
      </trkpt>
      <trkpt lat="44.87942" lon="4.41141">
        <ele>923.479</ele>
        <time>2011-05-17T13:48:40Z</time>
      </trkpt>
      <trkpt lat="44.87936" lon="4.41133">
        <ele>923.013</ele>
        <time>2011-05-17T13:48:52Z</time>
      </trkpt>
      <trkpt lat="44.87922" lon="4.41115">
        <ele>921.618</ele>
        <time>2011-05-17T13:49:06Z</time>
      </trkpt>
      <trkpt lat="44.87909" lon="4.41103">
        <ele>921.409</ele>
        <time>2011-05-17T13:49:15Z</time>
      </trkpt>
      <trkpt lat="44.87906" lon="4.4109">
        <ele>921.217</ele>
        <time>2011-05-17T13:49:23Z</time>
      </trkpt>
      <trkpt lat="44.87904" lon="4.41079">
        <ele>920.373</ele>
        <time>2011-05-17T13:49:29Z</time>
      </trkpt>
      <trkpt lat="44.87903" lon="4.41068">
        <ele>920.637</ele>
        <time>2011-05-17T13:49:37Z</time>
      </trkpt>
      <trkpt lat="44.87903" lon="4.41066">
        <ele>920.423</ele>
        <time>2011-05-17T13:49:39Z</time>
      </trkpt>
      <trkpt lat="44.87903" lon="4.41053">
        <ele>921.359</ele>
        <time>2011-05-17T13:49:49Z</time>
      </trkpt>
      <trkpt lat="44.87905" lon="4.41049">
        <ele>921.228</ele>
        <time>2011-05-17T13:49:52Z</time>
      </trkpt>
      <trkpt lat="44.87899" lon="4.41037">
        <ele>923.915</ele>
        <time>2011-05-17T13:50:44Z</time>
      </trkpt>
      <trkpt lat="44.87894" lon="4.41038">
        <ele>926.766</ele>
        <time>2011-05-17T13:50:59Z</time>
      </trkpt>
      <trkpt lat="44.87884" lon="4.41038">
        <ele>929.906</ele>
        <time>2011-05-17T13:51:10Z</time>
      </trkpt>
      <trkpt lat="44.8788" lon="4.41042">
        <ele>932.254</ele>
        <time>2011-05-17T13:51:18Z</time>
      </trkpt>
      <trkpt lat="44.8788" lon="4.41051">
        <ele>935.418</ele>
        <time>2011-05-17T13:51:29Z</time>
      </trkpt>
      <trkpt lat="44.87871" lon="4.41055">
        <ele>939.259</ele>
        <time>2011-05-17T13:51:56Z</time>
      </trkpt>
      <trkpt lat="44.8787" lon="4.41059">
        <ele>939.9</ele>
        <time>2011-05-17T13:52:12Z</time>
      </trkpt>
      <trkpt lat="44.87866" lon="4.41073">
        <ele>942.622</ele>
        <time>2011-05-17T13:52:27Z</time>
      </trkpt>
      <trkpt lat="44.87863" lon="4.41091">
        <ele>945.408</ele>
        <time>2011-05-17T13:52:45Z</time>
      </trkpt>
      <trkpt lat="44.87862" lon="4.41103">
        <ele>948.284</ele>
        <time>2011-05-17T13:53:00Z</time>
      </trkpt>
      <trkpt lat="44.87858" lon="4.41116">
        <ele>951.632</ele>
        <time>2011-05-17T13:53:16Z</time>
      </trkpt>
      <trkpt lat="44.87856" lon="4.41121">
        <ele>952.625</ele>
        <time>2011-05-17T13:53:22Z</time>
      </trkpt>
      <trkpt lat="44.87854" lon="4.41127">
        <ele>954.096</ele>
        <time>2011-05-17T13:53:33Z</time>
      </trkpt>
      <trkpt lat="44.87855" lon="4.41141">
        <ele>956.732</ele>
        <time>2011-05-17T13:53:57Z</time>
      </trkpt>
      <trkpt lat="44.87854" lon="4.4116">
        <ele>959.525</ele>
        <time>2011-05-17T13:54:15Z</time>
      </trkpt>
      <trkpt lat="44.87856" lon="4.41178">
        <ele>961.556</ele>
        <time>2011-05-17T13:54:35Z</time>
      </trkpt>
      <trkpt lat="44.87856" lon="4.41197">
        <ele>963.616</ele>
        <time>2011-05-17T13:54:50Z</time>
      </trkpt>
      <trkpt lat="44.87855" lon="4.41213">
        <ele>966.927</ele>
        <time>2011-05-17T13:55:09Z</time>
      </trkpt>
      <trkpt lat="44.87857" lon="4.41224">
        <ele>968.317</ele>
        <time>2011-05-17T13:55:20Z</time>
      </trkpt>
      <trkpt lat="44.8786" lon="4.41237">
        <ele>970.68</ele>
        <time>2011-05-17T13:55:37Z</time>
      </trkpt>
      <trkpt lat="44.87859" lon="4.41248">
        <ele>974.087</ele>
        <time>2011-05-17T13:55:53Z</time>
      </trkpt>
      <trkpt lat="44.87861" lon="4.41261">
        <ele>977.053</ele>
        <time>2011-05-17T13:56:08Z</time>
      </trkpt>
      <trkpt lat="44.87864" lon="4.41272">
        <ele>980.022</ele>
        <time>2011-05-17T13:56:31Z</time>
      </trkpt>
      <trkpt lat="44.87862" lon="4.4128">
        <ele>979.811</ele>
        <time>2011-05-17T13:56:48Z</time>
      </trkpt>
      <trkpt lat="44.87857" lon="4.41293">
        <ele>980.82</ele>
        <time>2011-05-17T13:56:56Z</time>
      </trkpt>
      <trkpt lat="44.87854" lon="4.41297">
        <ele>981.461</ele>
        <time>2011-05-17T13:57:16Z</time>
      </trkpt>
      <trkpt lat="44.87854" lon="4.41302">
        <ele>980.958</ele>
        <time>2011-05-17T13:58:01Z</time>
      </trkpt>
      <trkpt lat="44.87851" lon="4.41308">
        <ele>981.195</ele>
        <time>2011-05-17T13:58:06Z</time>
      </trkpt>
      <trkpt lat="44.87848" lon="4.41318">
        <ele>981.25</ele>
        <time>2011-05-17T13:58:14Z</time>
      </trkpt>
      <trkpt lat="44.87853" lon="4.41344">
        <ele>981.327</ele>
        <time>2011-05-17T13:58:30Z</time>
      </trkpt>
      <trkpt lat="44.87852" lon="4.41357">
        <ele>982.026</ele>
        <time>2011-05-17T13:58:44Z</time>
      </trkpt>
      <trkpt lat="44.87849" lon="4.41382">
        <ele>982.903</ele>
        <time>2011-05-17T13:59:00Z</time>
      </trkpt>
      <trkpt lat="44.87836" lon="4.41403">
        <ele>985.387</ele>
        <time>2011-05-17T13:59:20Z</time>
      </trkpt>
      <trkpt lat="44.87822" lon="4.41419">
        <ele>986.211</ele>
        <time>2011-05-17T13:59:36Z</time>
      </trkpt>
      <trkpt lat="44.87814" lon="4.41436">
        <ele>986.385</ele>
        <time>2011-05-17T13:59:50Z</time>
      </trkpt>
      <trkpt lat="44.87794" lon="4.41455">
        <ele>986.102</ele>
        <time>2011-05-17T14:00:11Z</time>
      </trkpt>
      <trkpt lat="44.87775" lon="4.41475">
        <ele>986.43</ele>
        <time>2011-05-17T14:00:33Z</time>
      </trkpt>
      <trkpt lat="44.87771" lon="4.41476">
        <ele>986.691</ele>
        <time>2011-05-17T14:00:36Z</time>
      </trkpt>
      <trkpt lat="44.87756" lon="4.41489">
        <ele>987.112</ele>
        <time>2011-05-17T14:00:52Z</time>
      </trkpt>
      <trkpt lat="44.87732" lon="4.415">
        <ele>987.543</ele>
        <time>2011-05-17T14:01:14Z</time>
      </trkpt>
      <trkpt lat="44.87707" lon="4.41506">
        <ele>988.558</ele>
        <time>2011-05-17T14:01:36Z</time>
      </trkpt>
      <trkpt lat="44.87695" lon="4.41508">
        <ele>988.775</ele>
        <time>2011-05-17T14:01:46Z</time>
      </trkpt>
      <trkpt lat="44.87693" lon="4.41499">
        <ele>988.734</ele>
        <time>2011-05-17T14:01:51Z</time>
      </trkpt>
      <trkpt lat="44.87703" lon="4.41452">
        <ele>990.678</ele>
        <time>2011-05-17T14:02:19Z</time>
      </trkpt>
      <trkpt lat="44.87701" lon="4.41431">
        <ele>991.232</ele>
        <time>2011-05-17T14:02:33Z</time>
      </trkpt>
      <trkpt lat="44.87701" lon="4.41417">
        <ele>991.316</ele>
        <time>2011-05-17T14:02:47Z</time>
      </trkpt>
      <trkpt lat="44.87701" lon="4.41408">
        <ele>991.333</ele>
        <time>2011-05-17T14:02:53Z</time>
      </trkpt>
      <trkpt lat="44.8772" lon="4.41388">
        <ele>993.571</ele>
        <time>2011-05-17T14:03:13Z</time>
      </trkpt>
      <trkpt lat="44.87741" lon="4.41375">
        <ele>995.519</ele>
        <time>2011-05-17T14:03:34Z</time>
      </trkpt>
      <trkpt lat="44.87747" lon="4.4137">
        <ele>996.49</ele>
        <time>2011-05-17T14:03:40Z</time>
      </trkpt>
      <trkpt lat="44.87752" lon="4.41365">
        <ele>997.129</ele>
        <time>2011-05-17T14:03:46Z</time>
      </trkpt>
      <trkpt lat="44.87755" lon="4.41353">
        <ele>998.191</ele>
        <time>2011-05-17T14:03:55Z</time>
      </trkpt>
      <trkpt lat="44.8776" lon="4.41341">
        <ele>998.85</ele>
        <time>2011-05-17T14:04:05Z</time>
      </trkpt>
      <trkpt lat="44.87759" lon="4.41337">
        <ele>999.514</ele>
        <time>2011-05-17T14:04:08Z</time>
      </trkpt>
      <trkpt lat="44.8776" lon="4.41334">
        <ele>999.549</ele>
        <time>2011-05-17T14:04:10Z</time>
      </trkpt>
      <trkpt lat="44.8776" lon="4.41325">
        <ele>999.965</ele>
        <time>2011-05-17T14:04:17Z</time>
      </trkpt>
      <trkpt lat="44.87763" lon="4.4131">
        <ele>1001.719</ele>
        <time>2011-05-17T14:04:29Z</time>
      </trkpt>
      <trkpt lat="44.87761" lon="4.41294">
        <ele>1004.076</ele>
        <time>2011-05-17T14:04:45Z</time>
      </trkpt>
      <trkpt lat="44.87752" lon="4.41299">
        <ele>1005.538</ele>
        <time>2011-05-17T14:04:55Z</time>
      </trkpt>
      <trkpt lat="44.8775" lon="4.413">
        <ele>1005.739</ele>
        <time>2011-05-17T14:04:57Z</time>
      </trkpt>
      <trkpt lat="44.87734" lon="4.41305">
        <ele>1007.423</ele>
        <time>2011-05-17T14:05:10Z</time>
      </trkpt>
      <trkpt lat="44.87713" lon="4.41307">
        <ele>1008.989</ele>
        <time>2011-05-17T14:05:29Z</time>
      </trkpt>
      <trkpt lat="44.87706" lon="4.41307">
        <ele>1009.108</ele>
        <time>2011-05-17T14:05:36Z</time>
      </trkpt>
      <trkpt lat="44.87704" lon="4.41308">
        <ele>1009.53</ele>
        <time>2011-05-17T14:05:38Z</time>
      </trkpt>
      <trkpt lat="44.87689" lon="4.41301">
        <ele>1010.43</ele>
        <time>2011-05-17T14:05:52Z</time>
      </trkpt>
      <trkpt lat="44.87689" lon="4.41287">
        <ele>1012.006</ele>
        <time>2011-05-17T14:06:06Z</time>
      </trkpt>
      <trkpt lat="44.87689" lon="4.41285">
        <ele>1012.212</ele>
        <time>2011-05-17T14:06:08Z</time>
      </trkpt>
      <trkpt lat="44.877" lon="4.41276">
        <ele>1013.361</ele>
        <time>2011-05-17T14:06:18Z</time>
      </trkpt>
      <trkpt lat="44.87718" lon="4.41264">
        <ele>1014.977</ele>
        <time>2011-05-17T14:06:35Z</time>
      </trkpt>
      <trkpt lat="44.87726" lon="4.41254">
        <ele>1016.157</ele>
        <time>2011-05-17T14:06:46Z</time>
      </trkpt>
      <trkpt lat="44.87728" lon="4.41243">
        <ele>1017.116</ele>
        <time>2011-05-17T14:06:55Z</time>
      </trkpt>
      <trkpt lat="44.87727" lon="4.41237">
        <ele>1017.928</ele>
        <time>2011-05-17T14:06:59Z</time>
      </trkpt>
      <trkpt lat="44.87728" lon="4.41233">
        <ele>1018.358</ele>
        <time>2011-05-17T14:07:03Z</time>
      </trkpt>
      <trkpt lat="44.87729" lon="4.41219">
        <ele>1020.77</ele>
        <time>2011-05-17T14:07:15Z</time>
      </trkpt>
      <trkpt lat="44.87725" lon="4.41218">
        <ele>1020.715</ele>
        <time>2011-05-17T14:07:39Z</time>
      </trkpt>
      <trkpt lat="44.87726" lon="4.41209">
        <ele>1022.142</ele>
        <time>2011-05-17T14:07:50Z</time>
      </trkpt>
      <trkpt lat="44.87722" lon="4.41198">
        <ele>1023.145</ele>
        <time>2011-05-17T14:07:59Z</time>
      </trkpt>
      <trkpt lat="44.87721" lon="4.4119">
        <ele>1025.102</ele>
        <time>2011-05-17T14:08:05Z</time>
      </trkpt>
      <trkpt lat="44.8771" lon="4.41185">
        <ele>1027.682</ele>
        <time>2011-05-17T14:08:21Z</time>
      </trkpt>
      <trkpt lat="44.87705" lon="4.41189">
        <ele>1028.38</ele>
        <time>2011-05-17T14:08:25Z</time>
      </trkpt>
      <trkpt lat="44.87696" lon="4.41195">
        <ele>1030.125</ele>
        <time>2011-05-17T14:08:36Z</time>
      </trkpt>
      <trkpt lat="44.87682" lon="4.41201">
        <ele>1031.534</ele>
        <time>2011-05-17T14:08:48Z</time>
      </trkpt>
      <trkpt lat="44.87669" lon="4.41205">
        <ele>1032.753</ele>
        <time>2011-05-17T14:09:03Z</time>
      </trkpt>
      <trkpt lat="44.87654" lon="4.41211">
        <ele>1033.488</ele>
        <time>2011-05-17T14:09:16Z</time>
      </trkpt>
      <trkpt lat="44.87649" lon="4.41216">
        <ele>1034.151</ele>
        <time>2011-05-17T14:09:23Z</time>
      </trkpt>
      <trkpt lat="44.87637" lon="4.41215">
        <ele>1035.644</ele>
        <time>2011-05-17T14:09:37Z</time>
      </trkpt>
      <trkpt lat="44.87635" lon="4.412">
        <ele>1037.053</ele>
        <time>2011-05-17T14:09:48Z</time>
      </trkpt>
      <trkpt lat="44.87641" lon="4.41184">
        <ele>1039.191</ele>
        <time>2011-05-17T14:10:01Z</time>
      </trkpt>
      <trkpt lat="44.87642" lon="4.41182">
        <ele>1039.812</ele>
        <time>2011-05-17T14:10:03Z</time>
      </trkpt>
      <trkpt lat="44.87653" lon="4.41172">
        <ele>1041.59</ele>
        <time>2011-05-17T14:10:15Z</time>
      </trkpt>
      <trkpt lat="44.87657" lon="4.41157">
        <ele>1043.635</ele>
        <time>2011-05-17T14:10:30Z</time>
      </trkpt>
      <trkpt lat="44.87657" lon="4.41152">
        <ele>1043.829</ele>
        <time>2011-05-17T14:10:33Z</time>
      </trkpt>
      <trkpt lat="44.87661" lon="4.41143">
        <ele>1044.77</ele>
        <time>2011-05-17T14:10:44Z</time>
      </trkpt>
      <trkpt lat="44.87663" lon="4.41142">
        <ele>1044.698</ele>
        <time>2011-05-17T14:10:46Z</time>
      </trkpt>
      <trkpt lat="44.87668" lon="4.41118">
        <ele>1047.003</ele>
        <time>2011-05-17T14:11:04Z</time>
      </trkpt>
      <trkpt lat="44.87672" lon="4.41106">
        <ele>1049.569</ele>
        <time>2011-05-17T14:11:19Z</time>
      </trkpt>
      <trkpt lat="44.87668" lon="4.41103">
        <ele>1050.997</ele>
        <time>2011-05-17T14:11:29Z</time>
      </trkpt>
      <trkpt lat="44.87667" lon="4.41101">
        <ele>1051.478</ele>
        <time>2011-05-17T14:11:33Z</time>
      </trkpt>
      <trkpt lat="44.87659" lon="4.41103">
        <ele>1052.277</ele>
        <time>2011-05-17T14:11:40Z</time>
      </trkpt>
      <trkpt lat="44.87645" lon="4.41115">
        <ele>1054.328</ele>
        <time>2011-05-17T14:11:56Z</time>
      </trkpt>
      <trkpt lat="44.87642" lon="4.41117">
        <ele>1055.444</ele>
        <time>2011-05-17T14:12:03Z</time>
      </trkpt>
      <trkpt lat="44.87633" lon="4.41119">
        <ele>1056.236</ele>
        <time>2011-05-17T14:12:13Z</time>
      </trkpt>
      <trkpt lat="44.87622" lon="4.41118">
        <ele>1057.652</ele>
        <time>2011-05-17T14:12:26Z</time>
      </trkpt>
      <trkpt lat="44.87615" lon="4.41115">
        <ele>1057.869</ele>
        <time>2011-05-17T14:12:32Z</time>
      </trkpt>
      <trkpt lat="44.87603" lon="4.41107">
        <ele>1060.078</ele>
        <time>2011-05-17T14:12:46Z</time>
      </trkpt>
      <trkpt lat="44.87608" lon="4.41097">
        <ele>1061.288</ele>
        <time>2011-05-17T14:12:52Z</time>
      </trkpt>
      <trkpt lat="44.8761" lon="4.41095">
        <ele>1061.651</ele>
        <time>2011-05-17T14:12:54Z</time>
      </trkpt>
      <trkpt lat="44.87612" lon="4.41093">
        <ele>1062.124</ele>
        <time>2011-05-17T14:12:56Z</time>
      </trkpt>
      <trkpt lat="44.8762" lon="4.41079">
        <ele>1063.499</ele>
        <time>2011-05-17T14:13:09Z</time>
      </trkpt>
      <trkpt lat="44.87621" lon="4.41074">
        <ele>1064.692</ele>
        <time>2011-05-17T14:13:13Z</time>
      </trkpt>
      <trkpt lat="44.87622" lon="4.41072">
        <ele>1064.864</ele>
        <time>2011-05-17T14:13:16Z</time>
      </trkpt>
      <trkpt lat="44.87626" lon="4.41059">
        <ele>1066.798</ele>
        <time>2011-05-17T14:13:25Z</time>
      </trkpt>
      <trkpt lat="44.87626" lon="4.41056">
        <ele>1066.543</ele>
        <time>2011-05-17T14:13:27Z</time>
      </trkpt>
      <trkpt lat="44.87632" lon="4.41047">
        <ele>1067.763</ele>
        <time>2011-05-17T14:13:35Z</time>
      </trkpt>
      <trkpt lat="44.87635" lon="4.41045">
        <ele>1068.432</ele>
        <time>2011-05-17T14:13:38Z</time>
      </trkpt>
      <trkpt lat="44.87636" lon="4.41038">
        <ele>1069.165</ele>
        <time>2011-05-17T14:13:43Z</time>
      </trkpt>
      <trkpt lat="44.87637" lon="4.41031">
        <ele>1069.917</ele>
        <time>2011-05-17T14:13:49Z</time>
      </trkpt>
      <trkpt lat="44.87639" lon="4.41022">
        <ele>1070.638</ele>
        <time>2011-05-17T14:13:56Z</time>
      </trkpt>
      <trkpt lat="44.87639" lon="4.41013">
        <ele>1071.671</ele>
        <time>2011-05-17T14:14:04Z</time>
      </trkpt>
      <trkpt lat="44.87639" lon="4.40993">
        <ele>1074.049</ele>
        <time>2011-05-17T14:14:19Z</time>
      </trkpt>
      <trkpt lat="44.87631" lon="4.4098">
        <ele>1075.427</ele>
        <time>2011-05-17T14:14:31Z</time>
      </trkpt>
      <trkpt lat="44.87629" lon="4.4097">
        <ele>1077.708</ele>
        <time>2011-05-17T14:14:42Z</time>
      </trkpt>
      <trkpt lat="44.8762" lon="4.40974">
        <ele>1080.41</ele>
        <time>2011-05-17T14:14:57Z</time>
      </trkpt>
      <trkpt lat="44.876" lon="4.40972">
        <ele>1082.874</ele>
        <time>2011-05-17T14:15:19Z</time>
      </trkpt>
      <trkpt lat="44.87596" lon="4.4097">
        <ele>1083.525</ele>
        <time>2011-05-17T14:15:22Z</time>
      </trkpt>
      <trkpt lat="44.87591" lon="4.40968">
        <ele>1083.627</ele>
        <time>2011-05-17T14:15:27Z</time>
      </trkpt>
      <trkpt lat="44.87586" lon="4.40955">
        <ele>1084.448</ele>
        <time>2011-05-17T14:15:38Z</time>
      </trkpt>
      <trkpt lat="44.87587" lon="4.40937">
        <ele>1086.85</ele>
        <time>2011-05-17T14:15:53Z</time>
      </trkpt>
      <trkpt lat="44.8759" lon="4.40934">
        <ele>1088.009</ele>
        <time>2011-05-17T14:16:08Z</time>
      </trkpt>
      <trkpt lat="44.87596" lon="4.40927">
        <ele>1087.784</ele>
        <time>2011-05-17T14:16:21Z</time>
      </trkpt>
      <trkpt lat="44.87603" lon="4.40922">
        <ele>1089.66</ele>
        <time>2011-05-17T14:16:35Z</time>
      </trkpt>
      <trkpt lat="44.87609" lon="4.40923">
        <ele>1091.072</ele>
        <time>2011-05-17T14:16:45Z</time>
      </trkpt>
      <trkpt lat="44.87619" lon="4.40921">
        <ele>1089.974</ele>
        <time>2011-05-17T14:17:13Z</time>
      </trkpt>
      <trkpt lat="44.8762" lon="4.40927">
        <ele>1089.096</ele>
        <time>2011-05-17T14:18:15Z</time>
      </trkpt>
      <trkpt lat="44.8762" lon="4.40926">
        <ele>1089.621</ele>
        <time>2011-05-17T14:20:26Z</time>
      </trkpt>
      <trkpt lat="44.87617" lon="4.40925">
        <ele>1090.085</ele>
        <time>2011-05-17T14:25:04Z</time>
      </trkpt>
      <trkpt lat="44.87614" lon="4.40926">
        <ele>1090.526</ele>
        <time>2011-05-17T14:25:09Z</time>
      </trkpt>
      <trkpt lat="44.87607" lon="4.40927">
        <ele>1090.254</ele>
        <time>2011-05-17T14:25:26Z</time>
      </trkpt>
      <trkpt lat="44.87603" lon="4.40927">
        <ele>1089.774</ele>
        <time>2011-05-17T14:25:32Z</time>
      </trkpt>
      <trkpt lat="44.87595" lon="4.40935">
        <ele>1087.963</ele>
        <time>2011-05-17T14:25:42Z</time>
      </trkpt>
      <trkpt lat="44.87591" lon="4.40933">
        <ele>1086.858</ele>
        <time>2011-05-17T14:25:47Z</time>
      </trkpt>
      <trkpt lat="44.87588" lon="4.40939">
        <ele>1087.008</ele>
        <time>2011-05-17T14:25:51Z</time>
      </trkpt>
      <trkpt lat="44.87574" lon="4.40934">
        <ele>1087.685</ele>
        <time>2011-05-17T14:26:05Z</time>
      </trkpt>
      <trkpt lat="44.87557" lon="4.40925">
        <ele>1088.035</ele>
        <time>2011-05-17T14:26:22Z</time>
      </trkpt>
      <trkpt lat="44.8755" lon="4.40927">
        <ele>1088.536</ele>
        <time>2011-05-17T14:26:30Z</time>
      </trkpt>
      <trkpt lat="44.87547" lon="4.40926">
        <ele>1089.072</ele>
        <time>2011-05-17T14:26:32Z</time>
      </trkpt>
      <trkpt lat="44.87534" lon="4.40921">
        <ele>1090.165</ele>
        <time>2011-05-17T14:26:48Z</time>
      </trkpt>
      <trkpt lat="44.87533" lon="4.40919">
        <ele>1090.165</ele>
        <time>2011-05-17T14:26:49Z</time>
      </trkpt>
      <trkpt lat="44.87515" lon="4.40912">
        <ele>1091.406</ele>
        <time>2011-05-17T14:27:06Z</time>
      </trkpt>
      <trkpt lat="44.87493" lon="4.40897">
        <ele>1093.177</ele>
        <time>2011-05-17T14:27:25Z</time>
      </trkpt>
      <trkpt lat="44.87492" lon="4.40896">
        <ele>1093.378</ele>
        <time>2011-05-17T14:27:27Z</time>
      </trkpt>
      <trkpt lat="44.87479" lon="4.40888">
        <ele>1094.664</ele>
        <time>2011-05-17T14:27:44Z</time>
      </trkpt>
      <trkpt lat="44.87472" lon="4.40874">
        <ele>1096.409</ele>
        <time>2011-05-17T14:27:59Z</time>
      </trkpt>
      <trkpt lat="44.87468" lon="4.40865">
        <ele>1099.465</ele>
        <time>2011-05-17T14:28:11Z</time>
      </trkpt>
      <trkpt lat="44.87467" lon="4.40851">
        <ele>1100.378</ele>
        <time>2011-05-17T14:28:26Z</time>
      </trkpt>
      <trkpt lat="44.87467" lon="4.4084">
        <ele>1103.015</ele>
        <time>2011-05-17T14:28:38Z</time>
      </trkpt>
      <trkpt lat="44.87462" lon="4.40821">
        <ele>1106.234</ele>
        <time>2011-05-17T14:28:53Z</time>
      </trkpt>
      <trkpt lat="44.87465" lon="4.4081">
        <ele>1108.575</ele>
        <time>2011-05-17T14:29:06Z</time>
      </trkpt>
      <trkpt lat="44.87472" lon="4.40798">
        <ele>1110.834</ele>
        <time>2011-05-17T14:29:20Z</time>
      </trkpt>
      <trkpt lat="44.87478" lon="4.40794">
        <ele>1111.568</ele>
        <time>2011-05-17T14:29:32Z</time>
      </trkpt>
      <trkpt lat="44.87481" lon="4.40783">
        <ele>1112.079</ele>
        <time>2011-05-17T14:29:43Z</time>
      </trkpt>
      <trkpt lat="44.8747" lon="4.4077">
        <ele>1114.413</ele>
        <time>2011-05-17T14:29:57Z</time>
      </trkpt>
      <trkpt lat="44.8746" lon="4.40761">
        <ele>1116.303</ele>
        <time>2011-05-17T14:30:38Z</time>
      </trkpt>
      <trkpt lat="44.87458" lon="4.40745">
        <ele>1114.261</ele>
        <time>2011-05-17T14:30:50Z</time>
      </trkpt>
      <trkpt lat="44.87458" lon="4.40741">
        <ele>1113.282</ele>
        <time>2011-05-17T14:30:53Z</time>
      </trkpt>
      <trkpt lat="44.87459" lon="4.40735">
        <ele>1111.909</ele>
        <time>2011-05-17T14:30:57Z</time>
      </trkpt>
      <trkpt lat="44.87453" lon="4.4072">
        <ele>1108.146</ele>
        <time>2011-05-17T14:31:10Z</time>
      </trkpt>
      <trkpt lat="44.87444" lon="4.40702">
        <ele>1106.577</ele>
        <time>2011-05-17T14:31:23Z</time>
      </trkpt>
      <trkpt lat="44.87444" lon="4.40693">
        <ele>1105.974</ele>
        <time>2011-05-17T14:31:28Z</time>
      </trkpt>
      <trkpt lat="44.87443" lon="4.40678">
        <ele>1102.637</ele>
        <time>2011-05-17T14:31:41Z</time>
      </trkpt>
      <trkpt lat="44.8744" lon="4.40665">
        <ele>1100.452</ele>
        <time>2011-05-17T14:31:49Z</time>
      </trkpt>
      <trkpt lat="44.87443" lon="4.40652">
        <ele>1097.985</ele>
        <time>2011-05-17T14:31:56Z</time>
      </trkpt>
      <trkpt lat="44.87446" lon="4.40647">
        <ele>1096.608</ele>
        <time>2011-05-17T14:32:01Z</time>
      </trkpt>
      <trkpt lat="44.87447" lon="4.40639">
        <ele>1094.45</ele>
        <time>2011-05-17T14:32:08Z</time>
      </trkpt>
      <trkpt lat="44.87446" lon="4.40633">
        <ele>1093.498</ele>
        <time>2011-05-17T14:32:13Z</time>
      </trkpt>
      <trkpt lat="44.87441" lon="4.40627">
        <ele>1092.281</ele>
        <time>2011-05-17T14:32:18Z</time>
      </trkpt>
      <trkpt lat="44.87437" lon="4.40626">
        <ele>1091.596</ele>
        <time>2011-05-17T14:32:21Z</time>
      </trkpt>
      <trkpt lat="44.87436" lon="4.40624">
        <ele>1090.959</ele>
        <time>2011-05-17T14:32:29Z</time>
      </trkpt>
      <trkpt lat="44.87425" lon="4.4062">
        <ele>1089.207</ele>
        <time>2011-05-17T14:32:38Z</time>
      </trkpt>
      <trkpt lat="44.87414" lon="4.4061">
        <ele>1086.129</ele>
        <time>2011-05-17T14:32:51Z</time>
      </trkpt>
      <trkpt lat="44.87403" lon="4.40606">
        <ele>1084.512</ele>
        <time>2011-05-17T14:33:02Z</time>
      </trkpt>
      <trkpt lat="44.87394" lon="4.406">
        <ele>1083.059</ele>
        <time>2011-05-17T14:33:11Z</time>
      </trkpt>
      <trkpt lat="44.87393" lon="4.40591">
        <ele>1082.258</ele>
        <time>2011-05-17T14:33:15Z</time>
      </trkpt>
      <trkpt lat="44.87389" lon="4.40582">
        <ele>1080.938</ele>
        <time>2011-05-17T14:33:28Z</time>
      </trkpt>
      <trkpt lat="44.87384" lon="4.40576">
        <ele>1080.769</ele>
        <time>2011-05-17T14:33:39Z</time>
      </trkpt>
      <trkpt lat="44.8738" lon="4.40566">
        <ele>1081.057</ele>
        <time>2011-05-17T14:33:48Z</time>
      </trkpt>
      <trkpt lat="44.87371" lon="4.40559">
        <ele>1082.035</ele>
        <time>2011-05-17T14:34:01Z</time>
      </trkpt>
      <trkpt lat="44.87371" lon="4.40554">
        <ele>1082.402</ele>
        <time>2011-05-17T14:34:03Z</time>
      </trkpt>
      <trkpt lat="44.87379" lon="4.40544">
        <ele>1081.189</ele>
        <time>2011-05-17T14:36:33Z</time>
      </trkpt>
      <trkpt lat="44.87374" lon="4.40535">
        <ele>1082.011</ele>
        <time>2011-05-17T14:36:45Z</time>
      </trkpt>
      <trkpt lat="44.87372" lon="4.40531">
        <ele>1082.692</ele>
        <time>2011-05-17T14:37:13Z</time>
      </trkpt>
      <trkpt lat="44.87372" lon="4.40526">
        <ele>1083.196</ele>
        <time>2011-05-17T14:38:18Z</time>
      </trkpt>
      <trkpt lat="44.87365" lon="4.405">
        <ele>1085.55</ele>
        <time>2011-05-17T14:38:39Z</time>
      </trkpt>
      <trkpt lat="44.87356" lon="4.40482">
        <ele>1087.257</ele>
        <time>2011-05-17T14:38:55Z</time>
      </trkpt>
      <trkpt lat="44.87346" lon="4.40465">
        <ele>1088.543</ele>
        <time>2011-05-17T14:39:10Z</time>
      </trkpt>
      <trkpt lat="44.87335" lon="4.40449">
        <ele>1089.42</ele>
        <time>2011-05-17T14:39:25Z</time>
      </trkpt>
      <trkpt lat="44.87323" lon="4.40431">
        <ele>1090.343</ele>
        <time>2011-05-17T14:39:41Z</time>
      </trkpt>
      <trkpt lat="44.8732" lon="4.40427">
        <ele>1090.559</ele>
        <time>2011-05-17T14:39:46Z</time>
      </trkpt>
      <trkpt lat="44.87315" lon="4.40425">
        <ele>1090.526</ele>
        <time>2011-05-17T14:39:51Z</time>
      </trkpt>
      <trkpt lat="44.87305" lon="4.40406">
        <ele>1090.773</ele>
        <time>2011-05-17T14:40:05Z</time>
      </trkpt>
      <trkpt lat="44.87305" lon="4.40403">
        <ele>1090.523</ele>
        <time>2011-05-17T14:40:07Z</time>
      </trkpt>
      <trkpt lat="44.873" lon="4.40395">
        <ele>1090.113</ele>
        <time>2011-05-17T14:40:18Z</time>
      </trkpt>
      <trkpt lat="44.87296" lon="4.40388">
        <ele>1091.184</ele>
        <time>2011-05-17T14:40:27Z</time>
      </trkpt>
      <trkpt lat="44.87296" lon="4.40383">
        <ele>1091.101</ele>
        <time>2011-05-17T14:40:31Z</time>
      </trkpt>
      <trkpt lat="44.87292" lon="4.40367">
        <ele>1091.369</ele>
        <time>2011-05-17T14:40:43Z</time>
      </trkpt>
      <trkpt lat="44.87288" lon="4.4034">
        <ele>1092.809</ele>
        <time>2011-05-17T14:41:01Z</time>
      </trkpt>
      <trkpt lat="44.87285" lon="4.40316">
        <ele>1093.575</ele>
        <time>2011-05-17T14:41:17Z</time>
      </trkpt>
      <trkpt lat="44.87285" lon="4.40309">
        <ele>1093.607</ele>
        <time>2011-05-17T14:41:36Z</time>
      </trkpt>
      <trkpt lat="44.87284" lon="4.40291">
        <ele>1095.989</ele>
        <time>2011-05-17T14:41:54Z</time>
      </trkpt>
      <trkpt lat="44.87283" lon="4.40275">
        <ele>1096.937</ele>
        <time>2011-05-17T14:42:04Z</time>
      </trkpt>
      <trkpt lat="44.87282" lon="4.40268">
        <ele>1097.245</ele>
        <time>2011-05-17T14:42:08Z</time>
      </trkpt>
      <trkpt lat="44.87283" lon="4.40246">
        <ele>1098.82</ele>
        <time>2011-05-17T14:42:22Z</time>
      </trkpt>
      <trkpt lat="44.87283" lon="4.4024">
        <ele>1099.003</ele>
        <time>2011-05-17T14:42:26Z</time>
      </trkpt>
      <trkpt lat="44.87283" lon="4.40219">
        <ele>1100.117</ele>
        <time>2011-05-17T14:42:46Z</time>
      </trkpt>
      <trkpt lat="44.87283" lon="4.40203">
        <ele>1100.83</ele>
        <time>2011-05-17T14:43:19Z</time>
      </trkpt>
      <trkpt lat="44.87281" lon="4.40182">
        <ele>1101.998</ele>
        <time>2011-05-17T14:43:31Z</time>
      </trkpt>
      <trkpt lat="44.87283" lon="4.40169">
        <ele>1103.448</ele>
        <time>2011-05-17T14:43:41Z</time>
      </trkpt>
      <trkpt lat="44.87282" lon="4.40166">
        <ele>1104.922</ele>
        <time>2011-05-17T14:43:43Z</time>
      </trkpt>
      <trkpt lat="44.87283" lon="4.40159">
        <ele>1104.324</ele>
        <time>2011-05-17T14:43:47Z</time>
      </trkpt>
      <trkpt lat="44.87283" lon="4.40149">
        <ele>1105.021</ele>
        <time>2011-05-17T14:43:53Z</time>
      </trkpt>
      <trkpt lat="44.87284" lon="4.40131">
        <ele>1107.146</ele>
        <time>2011-05-17T14:44:07Z</time>
      </trkpt>
      <trkpt lat="44.87288" lon="4.40102">
        <ele>1109.423</ele>
        <time>2011-05-17T14:44:26Z</time>
      </trkpt>
      <trkpt lat="44.8729" lon="4.40069">
        <ele>1111.296</ele>
        <time>2011-05-17T14:44:48Z</time>
      </trkpt>
      <trkpt lat="44.87291" lon="4.40044">
        <ele>1113.406</ele>
        <time>2011-05-17T14:45:05Z</time>
      </trkpt>
      <trkpt lat="44.87291" lon="4.4004">
        <ele>1113.847</ele>
        <time>2011-05-17T14:45:07Z</time>
      </trkpt>
      <trkpt lat="44.87292" lon="4.40005">
        <ele>1116.22</ele>
        <time>2011-05-17T14:45:30Z</time>
      </trkpt>
      <trkpt lat="44.87292" lon="4.40001">
        <ele>1116.805</ele>
        <time>2011-05-17T14:45:33Z</time>
      </trkpt>
      <trkpt lat="44.87292" lon="4.39985">
        <ele>1117.656</ele>
        <time>2011-05-17T14:45:44Z</time>
      </trkpt>
      <trkpt lat="44.87291" lon="4.39966">
        <ele>1119.385</ele>
        <time>2011-05-17T14:45:57Z</time>
      </trkpt>
      <trkpt lat="44.87289" lon="4.39937">
        <ele>1121.961</ele>
        <time>2011-05-17T14:46:16Z</time>
      </trkpt>
      <trkpt lat="44.8729" lon="4.39906">
        <ele>1124.892</ele>
        <time>2011-05-17T14:46:36Z</time>
      </trkpt>
      <trkpt lat="44.87291" lon="4.39889">
        <ele>1126.027</ele>
        <time>2011-05-17T14:46:47Z</time>
      </trkpt>
      <trkpt lat="44.87291" lon="4.3986">
        <ele>1128.654</ele>
        <time>2011-05-17T14:47:08Z</time>
      </trkpt>
      <trkpt lat="44.87291" lon="4.39857">
        <ele>1128.543</ele>
        <time>2011-05-17T14:47:10Z</time>
      </trkpt>
      <trkpt lat="44.87287" lon="4.39819">
        <ele>1130.767</ele>
        <time>2011-05-17T14:47:33Z</time>
      </trkpt>
      <trkpt lat="44.87284" lon="4.39786">
        <ele>1133.177</ele>
        <time>2011-05-17T14:47:56Z</time>
      </trkpt>
      <trkpt lat="44.87281" lon="4.3978">
        <ele>1133.393</ele>
        <time>2011-05-17T14:48:00Z</time>
      </trkpt>
      <trkpt lat="44.87275" lon="4.39785">
        <ele>1135.488</ele>
        <time>2011-05-17T14:48:10Z</time>
      </trkpt>
      <trkpt lat="44.87274" lon="4.3979">
        <ele>1135.604</ele>
        <time>2011-05-17T14:48:13Z</time>
      </trkpt>
      <trkpt lat="44.87272" lon="4.39803">
        <ele>1136.948</ele>
        <time>2011-05-17T14:48:21Z</time>
      </trkpt>
      <trkpt lat="44.87273" lon="4.39825">
        <ele>1138.891</ele>
        <time>2011-05-17T14:48:35Z</time>
      </trkpt>
      <trkpt lat="44.87273" lon="4.39831">
        <ele>1139.237</ele>
        <time>2011-05-17T14:48:39Z</time>
      </trkpt>
      <trkpt lat="44.87265" lon="4.39859">
        <ele>1141.514</ele>
        <time>2011-05-17T14:48:59Z</time>
      </trkpt>
      <trkpt lat="44.87265" lon="4.39862">
        <ele>1141.98</ele>
        <time>2011-05-17T14:49:01Z</time>
      </trkpt>
      <trkpt lat="44.87262" lon="4.39869">
        <ele>1142.517</ele>
        <time>2011-05-17T14:49:06Z</time>
      </trkpt>
      <trkpt lat="44.87252" lon="4.39894">
        <ele>1144.581</ele>
        <time>2011-05-17T14:49:25Z</time>
      </trkpt>
      <trkpt lat="44.8725" lon="4.39903">
        <ele>1145.869</ele>
        <time>2011-05-17T14:49:32Z</time>
      </trkpt>
      <trkpt lat="44.87239" lon="4.39927">
        <ele>1147.606</ele>
        <time>2011-05-17T14:49:51Z</time>
      </trkpt>
      <trkpt lat="44.87235" lon="4.39931">
        <ele>1148.227</ele>
        <time>2011-05-17T14:49:56Z</time>
      </trkpt>
      <trkpt lat="44.87232" lon="4.39935">
        <ele>1148.906</ele>
        <time>2011-05-17T14:50:00Z</time>
      </trkpt>
      <trkpt lat="44.87229" lon="4.39939">
        <ele>1149.409</ele>
        <time>2011-05-17T14:50:05Z</time>
      </trkpt>
      <trkpt lat="44.87222" lon="4.39954">
        <ele>1150.661</ele>
        <time>2011-05-17T14:50:17Z</time>
      </trkpt>
      <trkpt lat="44.87215" lon="4.3996">
        <ele>1151.872</ele>
        <time>2011-05-17T14:50:26Z</time>
      </trkpt>
      <trkpt lat="44.87207" lon="4.39959">
        <ele>1152.43</ele>
        <time>2011-05-17T14:50:33Z</time>
      </trkpt>
      <trkpt lat="44.87205" lon="4.3996">
        <ele>1152.948</ele>
        <time>2011-05-17T14:50:36Z</time>
      </trkpt>
      <trkpt lat="44.87202" lon="4.39971">
        <ele>1153.362</ele>
        <time>2011-05-17T14:50:57Z</time>
      </trkpt>
      <trkpt lat="44.87199" lon="4.39947">
        <ele>1153.545</ele>
        <time>2011-05-17T14:51:12Z</time>
      </trkpt>
      <trkpt lat="44.87201" lon="4.39944">
        <ele>1153.895</ele>
        <time>2011-05-17T14:51:15Z</time>
      </trkpt>
      <trkpt lat="44.87203" lon="4.39941">
        <ele>1153.521</ele>
        <time>2011-05-17T14:51:17Z</time>
      </trkpt>
      <trkpt lat="44.87204" lon="4.39933">
        <ele>1154.494</ele>
        <time>2011-05-17T14:51:23Z</time>
      </trkpt>
      <trkpt lat="44.87214" lon="4.39914">
        <ele>1155.652</ele>
        <time>2011-05-17T14:51:38Z</time>
      </trkpt>
      <trkpt lat="44.87214" lon="4.39911">
        <ele>1155.802</ele>
        <time>2011-05-17T14:51:40Z</time>
      </trkpt>
      <trkpt lat="44.87217" lon="4.39898">
        <ele>1156.957</ele>
        <time>2011-05-17T14:51:50Z</time>
      </trkpt>
      <trkpt lat="44.87216" lon="4.39893">
        <ele>1157.286</ele>
        <time>2011-05-17T14:51:53Z</time>
      </trkpt>
      <trkpt lat="44.87215" lon="4.3989">
        <ele>1157.785</ele>
        <time>2011-05-17T14:51:55Z</time>
      </trkpt>
      <trkpt lat="44.87214" lon="4.39884">
        <ele>1157.841</ele>
        <time>2011-05-17T14:51:59Z</time>
      </trkpt>
      <trkpt lat="44.87216" lon="4.39878">
        <ele>1158.694</ele>
        <time>2011-05-17T14:52:04Z</time>
      </trkpt>
      <trkpt lat="44.87218" lon="4.3987">
        <ele>1158.808</ele>
        <time>2011-05-17T14:52:24Z</time>
      </trkpt>
      <trkpt lat="44.87217" lon="4.39845">
        <ele>1160.647</ele>
        <time>2011-05-17T14:52:40Z</time>
      </trkpt>
      <trkpt lat="44.87216" lon="4.39811">
        <ele>1163.365</ele>
        <time>2011-05-17T14:53:04Z</time>
      </trkpt>
      <trkpt lat="44.87214" lon="4.39798">
        <ele>1164.863</ele>
        <time>2011-05-17T14:53:14Z</time>
      </trkpt>
      <trkpt lat="44.87214" lon="4.39795">
        <ele>1164.653</ele>
        <time>2011-05-17T14:53:16Z</time>
      </trkpt>
      <trkpt lat="44.87214" lon="4.39779">
        <ele>1166.422</ele>
        <time>2011-05-17T14:53:34Z</time>
      </trkpt>
      <trkpt lat="44.8721" lon="4.39772">
        <ele>1167.172</ele>
        <time>2011-05-17T14:55:01Z</time>
      </trkpt>
      <trkpt lat="44.87209" lon="4.39766">
        <ele>1168.194</ele>
        <time>2011-05-17T14:55:19Z</time>
      </trkpt>
      <trkpt lat="44.87208" lon="4.39752">
        <ele>1168.677</ele>
        <time>2011-05-17T14:55:28Z</time>
      </trkpt>
      <trkpt lat="44.87207" lon="4.39719">
        <ele>1170.073</ele>
        <time>2011-05-17T14:55:48Z</time>
      </trkpt>
      <trkpt lat="44.87209" lon="4.39697">
        <ele>1171.49</ele>
        <time>2011-05-17T14:56:03Z</time>
      </trkpt>
      <trkpt lat="44.87209" lon="4.3968">
        <ele>1173.183</ele>
        <time>2011-05-17T14:56:17Z</time>
      </trkpt>
      <trkpt lat="44.87206" lon="4.39652">
        <ele>1175.089</ele>
        <time>2011-05-17T14:56:35Z</time>
      </trkpt>
      <trkpt lat="44.87205" lon="4.39631">
        <ele>1177.813</ele>
        <time>2011-05-17T14:56:52Z</time>
      </trkpt>
      <trkpt lat="44.87205" lon="4.3962">
        <ele>1178.623</ele>
        <time>2011-05-17T14:57:33Z</time>
      </trkpt>
      <trkpt lat="44.87203" lon="4.39628">
        <ele>1179.546</ele>
        <time>2011-05-17T14:57:45Z</time>
      </trkpt>
      <trkpt lat="44.872" lon="4.39634">
        <ele>1179.923</ele>
        <time>2011-05-17T14:57:51Z</time>
      </trkpt>
      <trkpt lat="44.87195" lon="4.39648">
        <ele>1182.099</ele>
        <time>2011-05-17T14:58:02Z</time>
      </trkpt>
      <trkpt lat="44.87192" lon="4.39655">
        <ele>1181.566</ele>
        <time>2011-05-17T14:58:05Z</time>
      </trkpt>
      <trkpt lat="44.87187" lon="4.39659">
        <ele>1182.168</ele>
        <time>2011-05-17T14:58:09Z</time>
      </trkpt>
      <trkpt lat="44.87186" lon="4.39661">
        <ele>1182.17</ele>
        <time>2011-05-17T14:58:11Z</time>
      </trkpt>
      <trkpt lat="44.87167" lon="4.39672">
        <ele>1184.375</ele>
        <time>2011-05-17T14:58:29Z</time>
      </trkpt>
      <trkpt lat="44.87149" lon="4.39664">
        <ele>1185.828</ele>
        <time>2011-05-17T14:58:43Z</time>
      </trkpt>
      <trkpt lat="44.87143" lon="4.39659">
        <ele>1186.018</ele>
        <time>2011-05-17T14:58:49Z</time>
      </trkpt>
      <trkpt lat="44.87142" lon="4.39656">
        <ele>1186.67</ele>
        <time>2011-05-17T14:58:51Z</time>
      </trkpt>
      <trkpt lat="44.87136" lon="4.39647">
        <ele>1187.856</ele>
        <time>2011-05-17T14:58:59Z</time>
      </trkpt>
      <trkpt lat="44.87122" lon="4.39624">
        <ele>1190.302</ele>
        <time>2011-05-17T14:59:21Z</time>
      </trkpt>
      <trkpt lat="44.8712" lon="4.39617">
        <ele>1191.198</ele>
        <time>2011-05-17T14:59:27Z</time>
      </trkpt>
      <trkpt lat="44.87113" lon="4.39588">
        <ele>1193.997</ele>
        <time>2011-05-17T14:59:47Z</time>
      </trkpt>
      <trkpt lat="44.87106" lon="4.39561">
        <ele>1195.304</ele>
        <time>2011-05-17T15:00:06Z</time>
      </trkpt>
      <trkpt lat="44.87107" lon="4.39542">
        <ele>1195.984</ele>
        <time>2011-05-17T15:00:20Z</time>
      </trkpt>
      <trkpt lat="44.87105" lon="4.39531">
        <ele>1195.937</ele>
        <time>2011-05-17T15:00:28Z</time>
      </trkpt>
      <trkpt lat="44.87102" lon="4.39523">
        <ele>1196.784</ele>
        <time>2011-05-17T15:00:38Z</time>
      </trkpt>
      <trkpt lat="44.87093" lon="4.39519">
        <ele>1197.618</ele>
        <time>2011-05-17T15:00:55Z</time>
      </trkpt>
      <trkpt lat="44.87092" lon="4.39515">
        <ele>1197.509</ele>
        <time>2011-05-17T15:00:57Z</time>
      </trkpt>
      <trkpt lat="44.87081" lon="4.39516">
        <ele>1198.169</ele>
        <time>2011-05-17T15:01:11Z</time>
      </trkpt>
      <trkpt lat="44.8708" lon="4.39526">
        <ele>1198.818</ele>
        <time>2011-05-17T15:01:32Z</time>
      </trkpt>
      <trkpt lat="44.87078" lon="4.39537">
        <ele>1199.062</ele>
        <time>2011-05-17T15:01:55Z</time>
      </trkpt>
    </trkseg>
  </trk>
</gpx>